sensor_id;sensor_type;location;lat;lon;timestamp;P1;durP1;ratioP1;P2;durP2;ratioP2
57299;SDS011;43148;50.966;18.198;2024-01-07T00:04:32;11.10;;;10.20;;
57299;SDS011;43148;50.966;18.198;2024-01-07T00:14:35;10.00;;;9.20;;
57299;SDS011;43148;50.966;18.198;2024-01-07T00:24:26;9.20;;;8.70;;
57299;SDS011;43148;50.966;18.198;2024-01-07T00:34:10;8.70;;;8.10;;
57299;SDS011;43148;50.966;18.198;2024-01-07T00:51:19;9.90;;;8.80;;
57299;SDS011;43148;50.966;18.198;2024-01-07T01:01:03;8.50;;;7.90;;
57299;SDS011;43148;50.966;18.198;2024-01-07T01:10:49;8.40;;;7.80;;
57299;SDS011;43148;50.966;18.198;2024-01-07T01:20:35;7.20;;;6.60;;
57299;SDS011;43148;50.966;18.198;2024-01-07T01:30:21;6.90;;;6.40;;
57299;SDS011;43148;50.966;18.198;2024-01-07T01:40:09;6.60;;;6.00;;
57299;SDS011;43148;50.966;18.198;2024-01-07T01:49:55;6.90;;;6.40;;
57299;SDS011;43148;50.966;18.198;2024-01-07T01:59:41;7.50;;;7.00;;
57299;SDS011;43148;50.966;18.198;2024-01-07T02:09:25;8.00;;;7.40;;
57299;SDS011;43148;50.966;18.198;2024-01-07T02:19:22;8.20;;;7.60;;
57299;SDS011;43148;50.966;18.198;2024-01-07T02:29:15;5.50;;;5.20;;
57299;SDS011;43148;50.966;18.198;2024-01-07T02:39:00;8.30;;;7.70;;
57299;SDS011;43148;50.966;18.198;2024-01-07T02:48:43;7.90;;;7.40;;
57299;SDS011;43148;50.966;18.198;2024-01-07T02:58:26;7.80;;;7.30;;
57299;SDS011;43148;50.966;18.198;2024-01-07T03:08:12;8.20;;;7.60;;
57299;SDS011;43148;50.966;18.198;2024-01-07T03:17:57;9.30;;;8.70;;
57299;SDS011;43148;50.966;18.198;2024-01-07T03:22:54;11.70;;;10.70;;
57299;SDS011;43148;50.966;18.198;2024-01-07T03:32:51;8.50;;;8.00;;
57299;SDS011;43148;50.966;18.198;2024-01-07T03:42:38;12.70;;;11.50;;
57299;SDS011;43148;50.966;18.198;2024-01-07T03:52:26;12.60;;;10.50;;
57299;SDS011;43148;50.966;18.198;2024-01-07T04:02:11;10.30;;;9.60;;
57299;SDS011;43148;50.966;18.198;2024-01-07T04:12:02;12.50;;;11.50;;
57299;SDS011;43148;50.966;18.198;2024-01-07T04:21:53;10.40;;;9.60;;
57299;SDS011;43148;50.966;18.198;2024-01-07T04:31:36;12.80;;;11.90;;
57299;SDS011;43148;50.966;18.198;2024-01-07T04:41:18;12.40;;;11.60;;
57299;SDS011;43148;50.966;18.198;2024-01-07T04:51:02;11.30;;;10.60;;
57299;SDS011;43148;50.966;18.198;2024-01-07T05:00:47;11.80;;;10.40;;
57299;SDS011;43148;50.966;18.198;2024-01-07T05:10:30;13.00;;;12.00;;
57299;SDS011;43148;50.966;18.198;2024-01-07T05:20:14;8.10;;;5.90;;
57299;SDS011;43148;50.966;18.198;2024-01-07T05:29:58;10.60;;;9.90;;
57299;SDS011;43148;50.966;18.198;2024-01-07T05:40:02;8.40;;;6.10;;
57299;SDS011;43148;50.966;18.198;2024-01-07T05:57:11;9.80;;;9.10;;
57299;SDS011;43148;50.966;18.198;2024-01-07T06:06:55;10.20;;;9.40;;
57299;SDS011;43148;50.966;18.198;2024-01-07T06:16:40;10.90;;;10.10;;
57299;SDS011;43148;50.966;18.198;2024-01-07T06:26:28;10.80;;;10.10;;
57299;SDS011;43148;50.966;18.198;2024-01-07T06:36:16;12.80;;;11.40;;
57299;SDS011;43148;50.966;18.198;2024-01-07T06:53:22;14.50;;;13.40;;
57299;SDS011;43148;50.966;18.198;2024-01-07T07:03:08;13.10;;;12.20;;
57299;SDS011;43148;50.966;18.198;2024-01-07T07:12:52;12.60;;;11.70;;
57299;SDS011;43148;50.966;18.198;2024-01-07T07:30:00;12.30;;;11.40;;
57299;SDS011;43148;50.966;18.198;2024-01-07T07:39:44;13.10;;;12.30;;
57299;SDS011;43148;50.966;18.198;2024-01-07T07:49:31;11.70;;;10.90;;
57299;SDS011;43148;50.966;18.198;2024-01-07T07:59:14;12.90;;;11.90;;
57299;SDS011;43148;50.966;18.198;2024-01-07T08:09:00;14.10;;;13.10;;
57299;SDS011;43148;50.966;18.198;2024-01-07T08:18:49;13.50;;;12.60;;
57299;SDS011;43148;50.966;18.198;2024-01-07T08:28:52;12.30;;;11.40;;
57299;SDS011;43148;50.966;18.198;2024-01-07T08:38:46;12.60;;;11.80;;
57299;SDS011;43148;50.966;18.198;2024-01-07T08:48:46;16.00;;;15.00;;
57299;SDS011;43148;50.966;18.198;2024-01-07T08:58:40;12.80;;;11.70;;
57299;SDS011;43148;50.966;18.198;2024-01-07T09:08:33;17.70;;;16.40;;
57299;SDS011;43148;50.966;18.198;2024-01-07T09:18:39;11.60;;;10.90;;
57299;SDS011;43148;50.966;18.198;2024-01-07T09:28:51;10.90;;;10.10;;
57299;SDS011;43148;50.966;18.198;2024-01-07T09:38:37;13.10;;;12.20;;
57299;SDS011;43148;50.966;18.198;2024-01-07T09:48:24;11.60;;;10.80;;
57299;SDS011;43148;50.966;18.198;2024-01-07T09:58:49;13.90;;;12.90;;
57299;SDS011;43148;50.966;18.198;2024-01-07T10:08:36;12.20;;;11.30;;
57299;SDS011;43148;50.966;18.198;2024-01-07T10:18:21;12.60;;;11.60;;
57299;SDS011;43148;50.966;18.198;2024-01-07T10:28:21;13.00;;;12.20;;
57299;SDS011;43148;50.966;18.198;2024-01-07T10:38:44;12.70;;;11.80;;
57299;SDS011;43148;50.966;18.198;2024-01-07T10:48:31;12.60;;;11.70;;
57299;SDS011;43148;50.966;18.198;2024-01-07T10:58:36;6.90;;;6.40;;
57299;SDS011;43148;50.966;18.198;2024-01-07T11:08:46;15.20;;;13.80;;
57299;SDS011;43148;50.966;18.198;2024-01-07T11:19:36;16.80;;;14.90;;
57299;SDS011;43148;50.966;18.198;2024-01-07T11:30:20;13.40;;;12.40;;
57299;SDS011;43148;50.966;18.198;2024-01-07T11:41:03;15.60;;;14.40;;
57299;SDS011;43148;50.966;18.198;2024-01-07T11:51:12;15.60;;;14.40;;
57299;SDS011;43148;50.966;18.198;2024-01-07T12:01:14;15.40;;;14.10;;
57299;SDS011;43148;50.966;18.198;2024-01-07T12:11:09;16.70;;;15.10;;
57299;SDS011;43148;50.966;18.198;2024-01-07T12:28:33;16.70;;;15.00;;
57299;SDS011;43148;50.966;18.198;2024-01-07T12:38:25;15.40;;;14.20;;
57299;SDS011;43148;50.966;18.198;2024-01-07T12:48:39;16.00;;;14.90;;
57299;SDS011;43148;50.966;18.198;2024-01-07T12:58:47;15.80;;;14.10;;
57299;SDS011;43148;50.966;18.198;2024-01-07T13:08:54;11.00;;;10.20;;
57299;SDS011;43148;50.966;18.198;2024-01-07T13:18:56;11.20;;;10.50;;
57299;SDS011;43148;50.966;18.198;2024-01-07T13:28:48;14.80;;;13.40;;
57299;SDS011;43148;50.966;18.198;2024-01-07T13:38:37;15.00;;;13.80;;
57299;SDS011;43148;50.966;18.198;2024-01-07T13:48:35;13.40;;;12.20;;
57299;SDS011;43148;50.966;18.198;2024-01-07T13:58:36;15.70;;;14.50;;
57299;SDS011;43148;50.966;18.198;2024-01-07T14:08:34;15.00;;;13.90;;
57299;SDS011;43148;50.966;18.198;2024-01-07T14:18:20;17.00;;;15.50;;
57299;SDS011;43148;50.966;18.198;2024-01-07T14:28:07;17.00;;;15.50;;
57299;SDS011;43148;50.966;18.198;2024-01-07T14:45:17;13.00;;;12.10;;
57299;SDS011;43148;50.966;18.198;2024-01-07T14:55:00;20.60;;;18.80;;
57299;SDS011;43148;50.966;18.198;2024-01-07T15:05:01;17.00;;;15.40;;
57299;SDS011;43148;50.966;18.198;2024-01-07T15:14:47;17.40;;;15.80;;
57299;SDS011;43148;50.966;18.198;2024-01-07T15:24:36;18.30;;;16.80;;
57299;SDS011;43148;50.966;18.198;2024-01-07T15:34:22;18.60;;;16.70;;
57299;SDS011;43148;50.966;18.198;2024-01-07T15:44:15;21.00;;;19.20;;
57299;SDS011;43148;50.966;18.198;2024-01-07T15:54:38;17.90;;;14.30;;
57299;SDS011;43148;50.966;18.198;2024-01-07T16:05:33;22.30;;;20.00;;
57299;SDS011;43148;50.966;18.198;2024-01-07T16:15:28;19.00;;;17.40;;
57299;SDS011;43148;50.966;18.198;2024-01-07T16:25:16;20.70;;;18.80;;
57299;SDS011;43148;50.966;18.198;2024-01-07T16:35:26;17.50;;;15.90;;
57299;SDS011;43148;50.966;18.198;2024-01-07T16:45:12;13.50;;;12.40;;
57299;SDS011;43148;50.966;18.198;2024-01-07T17:02:15;18.80;;;17.20;;
57299;SDS011;43148;50.966;18.198;2024-01-07T17:12:04;17.90;;;16.50;;
57299;SDS011;43148;50.966;18.198;2024-01-07T17:21:51;21.70;;;19.80;;
57299;SDS011;43148;50.966;18.198;2024-01-07T17:31:41;19.80;;;17.80;;
57299;SDS011;43148;50.966;18.198;2024-01-07T17:41:35;17.00;;;15.80;;
57299;SDS011;43148;50.966;18.198;2024-01-07T17:51:24;18.40;;;16.10;;
57299;SDS011;43148;50.966;18.198;2024-01-07T18:01:10;18.40;;;17.00;;
57299;SDS011;43148;50.966;18.198;2024-01-07T18:10:58;22.10;;;20.10;;
57299;SDS011;43148;50.966;18.198;2024-01-07T18:20:43;21.50;;;19.30;;
57299;SDS011;43148;50.966;18.198;2024-01-07T18:30:28;19.90;;;18.10;;
57299;SDS011;43148;50.966;18.198;2024-01-07T18:40:16;22.10;;;20.10;;
57299;SDS011;43148;50.966;18.198;2024-01-07T18:50:04;19.90;;;18.20;;
57299;SDS011;43148;50.966;18.198;2024-01-07T18:59:48;19.20;;;17.70;;
57299;SDS011;43148;50.966;18.198;2024-01-07T19:09:34;19.30;;;17.60;;
57299;SDS011;43148;50.966;18.198;2024-01-07T19:19:19;20.50;;;18.20;;
57299;SDS011;43148;50.966;18.198;2024-01-07T19:29:06;20.30;;;18.50;;
57299;SDS011;43148;50.966;18.198;2024-01-07T19:38:53;21.20;;;19.10;;
57299;SDS011;43148;50.966;18.198;2024-01-07T19:48:52;12.60;;;11.70;;
57299;SDS011;43148;50.966;18.198;2024-01-07T19:58:40;18.70;;;17.00;;
57299;SDS011;43148;50.966;18.198;2024-01-07T20:08:26;20.60;;;18.90;;
57299;SDS011;43148;50.966;18.198;2024-01-07T20:18:10;18.20;;;16.60;;
57299;SDS011;43148;50.966;18.198;2024-01-07T20:27:57;21.80;;;19.70;;
57299;SDS011;43148;50.966;18.198;2024-01-07T20:37:42;19.60;;;18.10;;
57299;SDS011;43148;50.966;18.198;2024-01-07T20:47:39;21.30;;;17.80;;
57299;SDS011;43148;50.966;18.198;2024-01-07T20:57:49;16.90;;;15.30;;
57299;SDS011;43148;50.966;18.198;2024-01-07T21:07:33;20.10;;;18.30;;
57299;SDS011;43148;50.966;18.198;2024-01-07T21:17:23;17.90;;;16.20;;
57299;SDS011;43148;50.966;18.198;2024-01-07T21:27:08;15.90;;;14.40;;
57299;SDS011;43148;50.966;18.198;2024-01-07T21:36:54;21.20;;;19.20;;
57299;SDS011;43148;50.966;18.198;2024-01-07T21:46:46;27.20;;;23.20;;
57299;SDS011;43148;50.966;18.198;2024-01-07T21:56:33;22.20;;;20.10;;
57299;SDS011;43148;50.966;18.198;2024-01-07T22:06:18;21.00;;;19.10;;
57299;SDS011;43148;50.966;18.198;2024-01-07T22:16:09;18.40;;;17.10;;
57299;SDS011;43148;50.966;18.198;2024-01-07T22:25:55;27.70;;;20.60;;
57299;SDS011;43148;50.966;18.198;2024-01-07T22:35:39;21.40;;;19.50;;
57299;SDS011;43148;50.966;18.198;2024-01-07T22:45:26;22.80;;;20.50;;
57299;SDS011;43148;50.966;18.198;2024-01-07T22:55:13;23.00;;;20.80;;
57299;SDS011;43148;50.966;18.198;2024-01-07T23:05:24;23.50;;;21.10;;
57299;SDS011;43148;50.966;18.198;2024-01-07T23:15:07;21.40;;;19.50;;
57299;SDS011;43148;50.966;18.198;2024-01-07T23:24:51;26.00;;;21.90;;
57299;SDS011;43148;50.966;18.198;2024-01-07T23:34:38;21.60;;;19.40;;
57299;SDS011;43148;50.966;18.198;2024-01-07T23:44:25;20.10;;;18.20;;
57299;SDS011;43148;50.966;18.198;2024-01-07T23:54:13;19.00;;;17.20;;
